createdAt,value
2022-11-24T00:00:48.893Z,985.83
2022-11-24T00:01:48.882Z,985.78
2022-11-24T00:02:48.764Z,985.91
2022-11-24T00:03:48.768Z,985.83
2022-11-24T00:04:48.736Z,985.84
2022-11-24T00:05:48.797Z,985.90
2022-11-24T00:06:48.744Z,985.96
2022-11-24T00:07:48.823Z,985.88
2022-11-24T00:08:48.721Z,985.91
2022-11-24T00:09:48.735Z,985.89
2022-11-24T00:10:48.694Z,985.96
2022-11-24T00:11:48.627Z,985.96
2022-11-24T00:12:48.634Z,985.97
2022-11-24T00:13:48.613Z,985.98
2022-11-24T00:14:48.569Z,986.02
2022-11-24T00:15:48.560Z,986.02
2022-11-24T00:17:14.382Z,986.01
2022-11-24T00:17:48.526Z,985.98
2022-11-24T00:18:48.568Z,986.04
2022-11-24T00:19:48.538Z,985.94
2022-11-24T00:20:48.610Z,986.03
2022-11-24T00:21:48.607Z,986.00
2022-11-24T00:22:48.731Z,985.97
2022-11-24T00:23:48.592Z,986.02
2022-11-24T00:24:48.749Z,986.00
2022-11-24T00:25:48.577Z,986.07
2022-11-24T00:26:48.714Z,986.06
2022-11-24T00:27:48.651Z,985.95
2022-11-24T00:28:48.567Z,986.03
2022-11-24T00:29:48.565Z,986.10
2022-11-24T00:30:48.695Z,985.99
2022-11-24T00:31:48.601Z,985.97
2022-11-24T00:32:48.557Z,985.98
2022-11-24T00:33:48.629Z,985.99
2022-11-24T00:34:48.540Z,985.97
2022-11-24T00:35:48.513Z,985.93
2022-11-24T00:36:48.544Z,985.97
2022-11-24T00:37:48.427Z,985.99
2022-11-24T00:38:48.428Z,985.99
2022-11-24T00:39:48.506Z,986.03
2022-11-24T00:40:48.414Z,986.01
2022-11-24T00:41:48.412Z,985.99
2022-11-24T00:42:48.430Z,986.06
2022-11-24T00:43:48.383Z,985.99
2022-11-24T00:44:49.525Z,986.12
2022-11-24T00:45:49.494Z,986.12
2022-11-24T00:46:48.516Z,986.13
2022-11-24T00:47:48.542Z,986.17
2022-11-24T00:48:48.471Z,986.09
2022-11-24T00:49:48.489Z,986.18
2022-11-24T00:50:48.444Z,986.19
2022-11-24T00:51:48.455Z,986.17
2022-11-24T00:52:48.434Z,986.10
2022-11-24T00:53:48.383Z,986.10
2022-11-24T00:54:48.371Z,986.01
2022-11-24T00:55:48.478Z,986.03
2022-11-24T00:56:48.366Z,986.11
2022-11-24T00:57:49.349Z,986.19
2022-11-24T00:58:48.361Z,986.05
2022-11-24T00:59:48.355Z,986.16
2022-11-24T01:00:48.383Z,986.15
2022-11-24T01:01:48.404Z,986.24
2022-11-24T01:02:48.293Z,986.29
2022-11-24T01:03:48.326Z,986.28
2022-11-24T01:04:48.381Z,986.29
2022-11-24T01:05:48.332Z,986.31
2022-11-24T01:06:48.321Z,986.35
2022-11-24T01:07:48.261Z,986.33
2022-11-24T01:08:48.352Z,986.41
2022-11-24T01:09:48.225Z,986.39
2022-11-24T01:10:48.210Z,986.48
2022-11-24T01:11:48.274Z,986.44
2022-11-24T01:12:48.351Z,986.48
2022-11-24T01:13:48.244Z,986.52
2022-11-24T01:14:48.262Z,986.49
2022-11-24T01:15:48.257Z,986.47
2022-11-24T01:17:08.750Z,986.50
2022-11-24T01:17:48.136Z,986.55
2022-11-24T01:18:48.226Z,986.48
2022-11-24T01:19:48.204Z,986.50
2022-11-24T01:20:48.260Z,986.53
2022-11-24T01:21:48.246Z,986.52
2022-11-24T01:22:48.462Z,986.51
2022-11-24T01:23:48.222Z,986.55
2022-11-24T01:24:48.210Z,986.55
2022-11-24T01:25:48.253Z,986.61
2022-11-24T01:26:48.155Z,986.47
2022-11-24T01:27:48.101Z,986.61
2022-11-24T01:28:48.188Z,986.56
2022-11-24T01:29:48.098Z,986.62
2022-11-24T01:30:48.178Z,986.62
2022-11-24T01:31:47.992Z,986.64
2022-11-24T01:32:48.091Z,986.61
2022-11-24T01:33:48.074Z,986.61
2022-11-24T01:34:48.142Z,986.61
2022-11-24T01:35:48.185Z,986.59
2022-11-24T01:36:48.078Z,986.49
2022-11-24T01:37:48.061Z,986.60
2022-11-24T01:38:48.128Z,986.51
2022-11-24T01:39:48.109Z,986.57
2022-11-24T01:40:48.067Z,986.56
2022-11-24T01:41:48.069Z,986.57
2022-11-24T01:42:48.087Z,986.54
2022-11-24T01:43:48.020Z,986.56
2022-11-24T01:44:48.093Z,986.59
2022-11-24T01:45:48.128Z,986.54
2022-11-24T01:46:48.015Z,986.56
2022-11-24T01:47:47.936Z,986.50
2022-11-24T01:48:47.936Z,986.64
2022-11-24T01:49:47.989Z,986.51
2022-11-24T01:50:47.931Z,986.56
2022-11-24T01:51:47.886Z,986.59
2022-11-24T01:52:47.924Z,986.49
2022-11-24T01:53:48.088Z,986.58
2022-11-24T01:54:47.976Z,986.60
2022-11-24T01:55:48.022Z,986.57
2022-11-24T01:56:48.066Z,986.59
2022-11-24T01:57:48.060Z,986.63
2022-11-24T01:58:48.061Z,986.64
2022-11-24T01:59:47.864Z,986.71
2022-11-24T02:00:48.050Z,986.64
2022-11-24T02:01:48.021Z,986.70
2022-11-24T02:02:47.857Z,986.71
2022-11-24T02:03:47.954Z,986.69
2022-11-24T02:04:47.965Z,986.76
2022-11-24T02:05:47.905Z,986.66
2022-11-24T02:06:47.935Z,986.64
2022-11-24T02:07:47.871Z,986.77
2022-11-24T02:08:47.760Z,986.76
2022-11-24T02:09:47.899Z,986.83
2022-11-24T02:10:47.905Z,986.76
2022-11-24T02:11:47.912Z,986.80
2022-11-24T02:12:47.851Z,986.81
2022-11-24T02:13:47.861Z,986.82
2022-11-24T02:14:47.860Z,986.76
2022-11-24T02:15:47.864Z,986.79
2022-11-24T02:16:47.824Z,986.76
2022-11-24T02:17:47.869Z,986.83
2022-11-24T02:18:47.887Z,986.80
2022-11-24T02:19:47.874Z,986.84
2022-11-24T02:20:47.831Z,986.85
2022-11-24T02:21:47.886Z,986.77
2022-11-24T02:22:47.975Z,986.76
2022-11-24T02:23:47.884Z,986.71
2022-11-24T02:24:47.765Z,986.75
2022-11-24T02:25:47.712Z,986.72
2022-11-24T02:26:47.695Z,986.78
2022-11-24T02:27:53.544Z,986.75
2022-11-24T02:28:49.720Z,986.83
2022-11-24T02:29:47.651Z,986.83
2022-11-24T02:30:47.698Z,986.96
2022-11-24T02:31:47.668Z,986.94
2022-11-24T02:32:47.668Z,986.98
2022-11-24T02:33:47.699Z,986.97
2022-11-24T02:34:47.610Z,986.94
2022-11-24T02:35:47.702Z,986.97
2022-11-24T02:36:47.697Z,987.05
2022-11-24T02:38:01.572Z,986.92
2022-11-24T02:38:47.613Z,987.01
2022-11-24T02:39:47.737Z,987.02
2022-11-24T02:40:47.715Z,987.07
2022-11-24T02:42:08.731Z,987.05
2022-11-24T02:42:47.579Z,987.09
2022-11-24T02:43:47.644Z,987.03
2022-11-24T02:44:47.779Z,987.06
2022-11-24T02:45:47.559Z,987.10
2022-11-24T02:46:47.764Z,987.05
2022-11-24T02:47:47.659Z,986.98
2022-11-24T02:48:47.551Z,986.95
2022-11-24T02:49:47.578Z,987.02
2022-11-24T02:50:47.540Z,986.99
2022-11-24T02:51:47.562Z,987.00
2022-11-24T02:52:47.519Z,986.93
2022-11-24T02:53:47.699Z,986.97
2022-11-24T02:54:47.603Z,987.00
2022-11-24T02:55:47.750Z,987.03
2022-11-24T02:56:47.557Z,986.99
2022-11-24T02:57:47.584Z,987.00
2022-11-24T02:58:48.430Z,987.14
2022-11-24T02:59:47.528Z,986.98
2022-11-24T03:00:47.579Z,986.99
2022-11-24T03:01:47.534Z,987.06
2022-11-24T03:02:47.579Z,987.10
2022-11-24T03:03:47.535Z,987.08
2022-11-24T03:04:47.529Z,987.04
2022-11-24T03:05:47.568Z,987.09
2022-11-24T03:06:47.570Z,987.12
2022-11-24T03:07:47.546Z,987.09
2022-11-24T03:08:47.477Z,987.01
2022-11-24T03:09:47.397Z,987.14
2022-11-24T03:10:47.452Z,987.09
2022-11-24T03:11:47.450Z,987.08
2022-11-24T03:12:47.520Z,987.05
2022-11-24T03:13:47.362Z,987.13
2022-11-24T03:14:47.350Z,987.10
2022-11-24T03:15:47.412Z,987.12
2022-11-24T03:16:47.329Z,987.03
2022-11-24T03:17:47.438Z,987.10
2022-11-24T03:18:47.341Z,987.10
2022-11-24T03:19:47.311Z,987.18
2022-11-24T03:20:47.406Z,987.19
2022-11-24T03:21:47.427Z,987.13
2022-11-24T03:22:47.304Z,987.19
2022-11-24T03:23:47.654Z,987.11
2022-11-24T03:24:47.382Z,987.13
2022-11-24T03:25:47.265Z,987.18
2022-11-24T03:26:47.405Z,987.09
2022-11-24T03:27:47.455Z,987.14
2022-11-24T03:28:47.284Z,987.18
2022-11-24T03:29:47.344Z,987.21
2022-11-24T03:30:47.449Z,987.13
2022-11-24T03:31:47.236Z,987.17
2022-11-24T03:32:47.422Z,987.20
2022-11-24T03:33:47.397Z,987.15
2022-11-24T03:34:47.291Z,987.22
2022-11-24T03:35:47.225Z,987.26
2022-11-24T03:36:47.222Z,987.31
2022-11-24T03:37:47.201Z,987.37
2022-11-24T03:38:47.260Z,987.40
2022-11-24T03:39:47.248Z,987.42
2022-11-24T03:40:47.203Z,987.38
2022-11-24T03:41:47.137Z,987.33
2022-11-24T03:42:47.290Z,987.38
2022-11-24T03:44:07.222Z,987.32
2022-11-24T03:44:47.139Z,987.41
2022-11-24T03:45:47.307Z,987.40
2022-11-24T03:46:47.232Z,987.42
2022-11-24T03:47:47.292Z,987.33
2022-11-24T03:48:47.250Z,987.40
2022-11-24T03:49:47.106Z,987.31
2022-11-24T03:50:47.240Z,987.38
2022-11-24T03:51:47.356Z,987.44
2022-11-24T03:52:47.079Z,987.43
2022-11-24T03:53:47.246Z,987.40
2022-11-24T03:54:47.180Z,987.47
2022-11-24T03:55:47.183Z,987.41
2022-11-24T03:56:47.203Z,987.43
2022-11-24T03:57:47.124Z,987.38
2022-11-24T03:58:47.056Z,987.35
2022-11-24T03:59:47.193Z,987.38
2022-11-24T04:00:47.383Z,987.34
2022-11-24T04:01:47.103Z,987.40
2022-11-24T04:02:47.084Z,987.48
2022-11-24T04:03:47.097Z,987.41
2022-11-24T04:04:49.697Z,987.46
2022-11-24T04:05:48.147Z,987.46
2022-11-24T04:06:47.060Z,987.50
2022-11-24T04:07:47.045Z,987.52
2022-11-24T04:08:47.092Z,987.50
2022-11-24T04:09:47.083Z,987.50
2022-11-24T04:10:47.045Z,987.47
2022-11-24T04:11:47.170Z,987.47
2022-11-24T04:12:47.034Z,987.49
2022-11-24T04:13:46.941Z,987.57
2022-11-24T04:14:47.095Z,987.53
2022-11-24T04:15:47.101Z,987.50
2022-11-24T04:16:46.970Z,987.51
2022-11-24T04:17:47.070Z,987.52
2022-11-24T04:18:47.123Z,987.45
2022-11-24T04:19:46.850Z,987.41
2022-11-24T04:20:46.950Z,987.49
2022-11-24T04:21:47.019Z,987.49
2022-11-24T04:22:46.918Z,987.62
2022-11-24T04:23:49.932Z,987.56
2022-11-24T04:24:46.952Z,987.60
2022-11-24T04:25:46.895Z,987.54
2022-11-24T04:26:46.840Z,987.65
2022-11-24T04:27:46.982Z,987.58
2022-11-24T04:28:46.869Z,987.59
2022-11-24T04:29:46.960Z,987.70
2022-11-24T04:30:46.879Z,987.64
2022-11-24T04:31:46.919Z,987.63
2022-11-24T04:32:48.876Z,987.67
2022-11-24T04:33:46.839Z,987.60
2022-11-24T04:34:46.808Z,987.60
2022-11-24T04:35:46.951Z,987.55
2022-11-24T04:36:46.889Z,987.59
2022-11-24T04:37:46.918Z,987.59
2022-11-24T04:39:24.331Z,987.61
2022-11-24T04:39:47.947Z,987.65
2022-11-24T04:40:46.775Z,987.61
2022-11-24T04:41:46.949Z,987.69
2022-11-24T04:42:49.168Z,987.74
2022-11-24T04:43:47.034Z,987.67
2022-11-24T04:44:46.920Z,987.67
2022-11-24T04:45:46.861Z,987.69
2022-11-24T04:46:46.896Z,987.73
2022-11-24T04:47:46.905Z,987.69
2022-11-24T04:48:46.795Z,987.81
2022-11-24T04:49:46.801Z,987.78
2022-11-24T04:50:46.849Z,987.77
2022-11-24T04:51:46.697Z,987.81
2022-11-24T04:52:46.755Z,987.82
2022-11-24T04:53:46.717Z,987.82
2022-11-24T04:54:46.739Z,987.79
2022-11-24T04:55:46.774Z,987.87
2022-11-24T04:56:46.696Z,987.92
2022-11-24T04:57:46.645Z,987.87
2022-11-24T04:58:46.743Z,987.88
2022-11-24T04:59:46.720Z,987.89
2022-11-24T05:00:46.877Z,987.87
2022-11-24T05:01:46.848Z,987.85
2022-11-24T05:02:46.647Z,987.87
2022-11-24T05:03:47.789Z,987.91
2022-11-24T05:04:46.808Z,987.82
2022-11-24T05:05:46.682Z,987.70
2022-11-24T05:06:46.809Z,987.64
2022-11-24T05:07:47.747Z,987.81
2022-11-24T05:08:46.552Z,987.88
2022-11-24T05:09:59.620Z,987.92
2022-11-24T05:10:47.652Z,987.92
2022-11-24T05:11:46.600Z,987.93
2022-11-24T05:12:51.138Z,987.90
2022-11-24T05:13:47.641Z,987.90
2022-11-24T05:14:46.537Z,988.02
2022-11-24T05:15:46.695Z,988.09
2022-11-24T05:16:46.682Z,988.14
2022-11-24T05:17:46.532Z,988.11
2022-11-24T05:18:46.743Z,988.06
2022-11-24T05:19:46.629Z,988.15
2022-11-24T05:20:46.535Z,988.10
2022-11-24T05:21:46.649Z,988.15
2022-11-24T05:22:46.594Z,988.08
2022-11-24T05:23:46.554Z,988.24
2022-11-24T05:24:47.623Z,988.14
2022-11-24T05:25:47.929Z,988.23
2022-11-24T05:26:47.515Z,988.29
2022-11-24T05:27:46.489Z,988.30
2022-11-24T05:28:46.453Z,988.32
2022-11-24T05:29:46.455Z,988.36
2022-11-24T05:30:46.606Z,988.32
2022-11-24T05:31:46.473Z,988.33
2022-11-24T05:32:46.718Z,988.34
2022-11-24T05:33:46.437Z,988.28
2022-11-24T05:34:46.436Z,988.27
2022-11-24T05:35:46.472Z,988.30
2022-11-24T05:36:46.455Z,988.31
2022-11-24T05:37:46.529Z,988.33
2022-11-24T05:38:46.358Z,988.37
2022-11-24T05:39:46.515Z,988.31
2022-11-24T05:40:46.490Z,988.24
2022-11-24T05:41:46.379Z,988.29
2022-11-24T05:42:48.011Z,988.21
2022-11-24T05:43:47.534Z,988.23
2022-11-24T05:44:46.360Z,988.24
2022-11-24T05:45:46.415Z,988.39
2022-11-24T05:46:46.533Z,988.39
2022-11-24T05:47:46.326Z,988.39
2022-11-24T05:48:46.489Z,988.40
2022-11-24T05:49:46.417Z,988.50
2022-11-24T05:50:46.297Z,988.43
2022-11-24T05:51:46.369Z,988.50
2022-11-24T05:52:46.512Z,988.52
2022-11-24T05:53:46.308Z,988.55
2022-11-24T05:54:46.551Z,988.60
2022-11-24T05:55:46.369Z,988.60
2022-11-24T05:56:46.285Z,988.61
2022-11-24T05:57:46.266Z,988.63
2022-11-24T05:58:46.244Z,988.66
2022-11-24T05:59:46.289Z,988.70
2022-11-24T06:00:46.278Z,988.66
2022-11-24T06:01:46.405Z,988.65
2022-11-24T06:02:47.340Z,988.62
2022-11-24T06:03:46.234Z,988.63
2022-11-24T06:04:46.262Z,988.64
2022-11-24T06:05:46.317Z,988.66
2022-11-24T06:06:46.239Z,988.64
2022-11-24T06:07:46.311Z,988.61
2022-11-24T06:08:46.242Z,988.65
2022-11-24T06:09:46.207Z,988.68
2022-11-24T06:10:46.307Z,988.70
2022-11-24T06:11:46.314Z,988.74
2022-11-24T06:12:46.230Z,988.74
2022-11-24T06:13:46.431Z,988.75
2022-11-24T06:14:46.257Z,988.74
2022-11-24T06:15:46.342Z,988.74
2022-11-24T06:16:46.337Z,988.75
2022-11-24T06:17:46.156Z,988.79
2022-11-24T06:18:46.259Z,988.74
2022-11-24T06:19:46.203Z,988.83
2022-11-24T06:20:57.608Z,988.80
2022-11-24T06:21:53.659Z,988.79
2022-11-24T06:22:46.253Z,988.83
2022-11-24T06:23:46.075Z,988.84
2022-11-24T06:24:46.221Z,988.85
2022-11-24T06:25:50.177Z,988.80
2022-11-24T06:26:48.079Z,988.82
2022-11-24T06:27:46.144Z,988.86
2022-11-24T06:28:47.172Z,988.87
2022-11-24T06:29:46.074Z,988.86
2022-11-24T06:30:46.193Z,988.83
2022-11-24T06:31:46.177Z,988.92
2022-11-24T06:32:49.299Z,988.92
2022-11-24T06:33:47.163Z,988.91
2022-11-24T06:34:46.117Z,988.88
2022-11-24T06:35:45.984Z,988.90
2022-11-24T06:36:46.000Z,988.86
2022-11-24T06:37:46.023Z,988.83
2022-11-24T06:38:46.027Z,988.73
2022-11-24T06:39:45.975Z,988.71
2022-11-24T06:40:48.775Z,988.80
2022-11-24T06:41:45.945Z,988.83
2022-11-24T06:42:45.921Z,988.70
2022-11-24T06:43:45.970Z,988.73
2022-11-24T06:44:45.880Z,988.74
2022-11-24T06:45:46.103Z,988.69
2022-11-24T06:46:46.156Z,988.63
2022-11-24T06:47:45.907Z,988.68
2022-11-24T06:48:46.046Z,988.78
2022-11-24T06:49:46.007Z,988.71
2022-11-24T06:50:45.986Z,988.78
2022-11-24T06:51:45.935Z,988.74
2022-11-24T06:52:45.998Z,988.79
2022-11-24T06:53:45.976Z,988.80
2022-11-24T06:54:46.044Z,988.77
2022-11-24T06:55:45.976Z,988.84
2022-11-24T06:56:45.872Z,988.84
2022-11-24T06:57:45.945Z,988.94
2022-11-24T06:58:45.930Z,988.91
2022-11-24T06:59:45.861Z,988.92
2022-11-24T07:00:45.918Z,988.97
2022-11-24T07:01:45.942Z,988.98
2022-11-24T07:02:46.323Z,989.04
2022-11-24T07:03:46.899Z,989.00
2022-11-24T07:04:45.816Z,989.06
2022-11-24T07:05:45.837Z,989.06
2022-11-24T07:06:46.482Z,989.08
2022-11-24T07:07:45.831Z,989.07
2022-11-24T07:08:45.840Z,989.07
2022-11-24T07:09:45.756Z,989.03
2022-11-24T07:10:45.755Z,989.05
2022-11-24T07:11:45.784Z,989.05
2022-11-24T07:12:45.713Z,989.14
2022-11-24T07:13:45.763Z,989.07
2022-11-24T07:14:45.814Z,989.14
2022-11-24T07:15:45.772Z,989.14
2022-11-24T07:16:45.915Z,989.07
2022-11-24T07:17:45.766Z,989.06
2022-11-24T07:18:45.799Z,989.06
2022-11-24T07:19:45.744Z,989.12
2022-11-24T07:20:45.757Z,989.04
2022-11-24T07:21:45.796Z,989.07
2022-11-24T07:22:45.786Z,989.09
2022-11-24T07:23:45.713Z,989.09
2022-11-24T07:24:45.890Z,989.10
2022-11-24T07:25:45.756Z,989.10
2022-11-24T07:26:45.694Z,989.15
2022-11-24T07:27:45.727Z,989.06
2022-11-24T07:28:45.813Z,989.17
2022-11-24T07:29:45.628Z,989.12
2022-11-24T07:30:45.603Z,989.18
2022-11-24T07:31:45.676Z,989.18
2022-11-24T07:32:45.731Z,989.12
2022-11-24T07:33:45.613Z,989.11
2022-11-24T07:34:45.576Z,989.16
2022-11-24T07:35:45.786Z,989.20
2022-11-24T07:36:45.649Z,989.31
2022-11-24T07:37:46.916Z,989.26
2022-11-24T07:38:47.032Z,989.27
2022-11-24T07:39:45.950Z,989.31
2022-11-24T07:40:45.575Z,989.35
2022-11-24T07:41:45.579Z,989.43
2022-11-24T07:42:45.585Z,989.42
2022-11-24T07:43:45.639Z,989.35
2022-11-24T07:44:45.623Z,989.36
2022-11-24T07:45:45.682Z,989.42
2022-11-24T07:46:45.579Z,989.42
2022-11-24T07:47:45.619Z,989.39
2022-11-24T07:48:45.617Z,989.33
2022-11-24T07:49:45.639Z,989.43
2022-11-24T07:50:46.526Z,989.40
2022-11-24T07:51:45.581Z,989.50
2022-11-24T07:52:45.489Z,989.48
2022-11-24T07:53:45.414Z,989.40
2022-11-24T07:54:45.583Z,989.41
2022-11-24T07:55:45.514Z,989.42
2022-11-24T07:56:45.591Z,989.43
2022-11-24T07:57:45.510Z,989.42
2022-11-24T07:58:49.784Z,989.42
2022-11-24T07:59:47.568Z,989.42
2022-11-24T08:00:45.496Z,989.49
2022-11-24T08:01:45.563Z,989.50
2022-11-24T08:02:45.999Z,989.47
2022-11-24T08:03:45.542Z,989.43
2022-11-24T08:04:45.501Z,989.49
2022-11-24T08:06:16.177Z,989.45
2022-11-24T08:06:47.751Z,989.50
2022-11-24T08:07:46.538Z,989.50
2022-11-24T08:08:45.497Z,989.49
2022-11-24T08:09:45.449Z,989.48
2022-11-24T08:10:45.600Z,989.50
2022-11-24T08:11:45.441Z,989.46
2022-11-24T08:12:45.341Z,989.47
2022-11-24T08:13:45.323Z,989.52
2022-11-24T08:14:45.375Z,989.59
2022-11-24T08:15:45.424Z,989.63
2022-11-24T08:16:45.327Z,989.61
2022-11-24T08:17:45.282Z,989.60
2022-11-24T08:18:45.305Z,989.63
2022-11-24T08:19:45.303Z,989.65
2022-11-24T08:20:45.284Z,989.65
2022-11-24T08:21:45.338Z,989.61
2022-11-24T08:22:45.340Z,989.64
2022-11-24T08:23:45.355Z,989.71
2022-11-24T08:24:45.311Z,989.67
2022-11-24T08:25:45.360Z,989.62
2022-11-24T08:26:45.407Z,989.68
2022-11-24T08:27:45.263Z,989.65
2022-11-24T08:28:45.244Z,989.77
2022-11-24T08:29:45.245Z,989.69
2022-11-24T08:30:45.332Z,989.64
2022-11-24T08:31:45.421Z,989.71
2022-11-24T08:32:45.338Z,989.75
2022-11-24T08:33:45.384Z,989.62
2022-11-24T08:34:45.292Z,989.72
2022-11-24T08:35:45.398Z,989.73
2022-11-24T08:36:49.341Z,989.76
2022-11-24T08:37:46.602Z,989.83
2022-11-24T08:38:45.197Z,989.75
2022-11-24T08:39:46.299Z,989.75
2022-11-24T08:40:45.128Z,989.78
2022-11-24T08:41:45.149Z,989.73
2022-11-24T08:42:45.125Z,989.77
2022-11-24T08:43:45.268Z,989.83
2022-11-24T08:44:45.239Z,989.85
2022-11-24T08:45:45.226Z,989.85
2022-11-24T08:46:45.202Z,989.88
2022-11-24T08:47:45.172Z,989.85
2022-11-24T08:48:45.178Z,989.87
2022-11-24T08:49:45.153Z,989.87
2022-11-24T08:50:45.120Z,989.87
2022-11-24T08:51:45.126Z,989.88
2022-11-24T08:52:45.170Z,989.85
2022-11-24T08:53:45.145Z,989.96
2022-11-24T08:54:45.182Z,989.93
2022-11-24T08:55:45.241Z,989.93
2022-11-24T08:56:45.001Z,989.99
2022-11-24T08:57:45.106Z,989.99
2022-11-24T08:58:45.064Z,989.98
2022-11-24T08:59:45.027Z,989.98
2022-11-24T09:00:45.017Z,990.00
2022-11-24T09:01:45.059Z,990.03
2022-11-24T09:02:44.985Z,990.01
2022-11-24T09:03:50.082Z,990.00
2022-11-24T09:04:47.046Z,989.97
2022-11-24T09:05:53.003Z,990.05
2022-11-24T09:06:47.021Z,990.01
2022-11-24T09:07:45.009Z,989.99
2022-11-24T09:08:45.053Z,990.03
2022-11-24T09:09:45.035Z,990.05
2022-11-24T09:10:45.068Z,990.06
2022-11-24T09:11:45.031Z,990.01
2022-11-24T09:12:45.089Z,990.01
2022-11-24T09:13:44.997Z,990.07
2022-11-24T09:14:44.999Z,990.06
2022-11-24T09:15:45.030Z,990.01
2022-11-24T09:16:44.953Z,990.06
2022-11-24T09:17:44.929Z,990.07
2022-11-24T09:18:45.010Z,990.13
2022-11-24T09:19:44.984Z,990.09
2022-11-24T09:20:44.959Z,990.14
2022-11-24T09:21:44.863Z,990.13
2022-11-24T09:22:44.858Z,990.12
2022-11-24T09:23:44.796Z,990.17
2022-11-24T09:24:44.828Z,990.19
2022-11-24T09:25:44.942Z,990.22
2022-11-24T09:26:47.632Z,990.22
2022-11-24T09:27:45.807Z,990.21
2022-11-24T09:28:44.843Z,990.22
2022-11-24T09:29:44.900Z,990.29
2022-11-24T09:30:44.892Z,990.32
2022-11-24T09:31:44.864Z,990.33
2022-11-24T09:32:44.932Z,990.32
2022-11-24T09:33:44.851Z,990.36
2022-11-24T09:34:44.825Z,990.33
2022-11-24T09:35:44.861Z,990.36
2022-11-24T09:36:44.852Z,990.39
2022-11-24T09:37:44.923Z,990.36
2022-11-24T09:38:44.794Z,990.36
2022-11-24T09:39:44.808Z,990.47
2022-11-24T09:40:44.818Z,990.42
2022-11-24T09:41:44.791Z,990.50
2022-11-24T09:42:49.293Z,990.43
2022-11-24T09:43:46.050Z,990.48
2022-11-24T09:44:44.805Z,990.49
2022-11-24T09:46:06.664Z,990.49
2022-11-24T09:46:46.671Z,990.47
2022-11-24T09:47:44.653Z,990.51
2022-11-24T09:48:45.891Z,990.46
2022-11-24T09:49:49.837Z,990.50
2022-11-24T09:50:46.593Z,990.44
2022-11-24T09:51:44.698Z,990.50
2022-11-24T09:52:44.702Z,990.52
2022-11-24T09:53:44.698Z,990.54
2022-11-24T09:54:44.702Z,990.53
2022-11-24T09:55:44.665Z,990.55
2022-11-24T09:56:44.709Z,990.58
2022-11-24T09:57:44.658Z,990.59
2022-11-24T09:58:44.695Z,990.58
2022-11-24T09:59:44.680Z,990.54
2022-11-24T10:00:44.646Z,990.58
2022-11-24T10:01:44.711Z,990.59
2022-11-24T10:02:44.653Z,990.62
2022-11-24T10:03:44.710Z,990.56
2022-11-24T10:04:44.703Z,990.56
2022-11-24T10:05:44.811Z,990.58
2022-11-24T10:06:44.651Z,990.60
2022-11-24T10:07:44.576Z,990.66
2022-11-24T10:08:44.517Z,990.65
2022-11-24T10:09:44.508Z,990.64
2022-11-24T10:10:44.559Z,990.58
2022-11-24T10:11:44.587Z,990.62
2022-11-24T10:12:44.600Z,990.60
2022-11-24T10:13:44.545Z,990.61
2022-11-24T10:14:44.566Z,990.53
2022-11-24T10:15:44.703Z,990.52
2022-11-24T10:16:44.593Z,990.56
2022-11-24T10:17:44.568Z,990.49
2022-11-24T10:18:44.608Z,990.51
2022-11-24T10:19:44.603Z,990.55
2022-11-24T10:20:44.553Z,990.56
2022-11-24T10:21:44.578Z,990.52
2022-11-24T10:22:44.491Z,990.52
2022-11-24T10:23:44.467Z,990.54
2022-11-24T10:24:44.540Z,990.56
2022-11-24T10:25:44.426Z,990.52
2022-11-24T10:26:44.444Z,990.48
2022-11-24T10:27:44.486Z,990.59
2022-11-24T10:28:44.581Z,990.52
2022-11-24T10:29:44.502Z,990.53
2022-11-24T10:30:44.593Z,990.54
2022-11-24T10:31:44.501Z,990.50
2022-11-24T10:32:44.493Z,990.46
2022-11-24T10:33:44.451Z,990.46
2022-11-24T10:34:44.449Z,990.40
2022-11-24T10:35:44.475Z,990.51
2022-11-24T10:36:44.438Z,990.52
2022-11-24T10:37:44.475Z,990.49
2022-11-24T10:38:44.441Z,990.47
2022-11-24T10:39:44.367Z,990.46
2022-11-24T10:40:59.763Z,990.56
2022-11-24T10:41:46.385Z,990.61
2022-11-24T10:42:44.381Z,990.57
2022-11-24T10:43:44.538Z,990.54
2022-11-24T10:44:44.322Z,990.58
2022-11-24T10:45:44.393Z,990.55
2022-11-24T10:46:44.466Z,990.66
2022-11-24T10:47:44.273Z,990.60
2022-11-24T10:48:44.366Z,990.62
2022-11-24T10:49:44.369Z,990.67
2022-11-24T10:50:44.298Z,990.60
2022-11-24T10:51:44.345Z,990.67
2022-11-24T10:52:44.314Z,990.69
2022-11-24T10:53:44.443Z,990.72
2022-11-24T10:54:44.359Z,990.74
2022-11-24T10:55:44.320Z,990.74
2022-11-24T10:56:44.284Z,990.73
2022-11-24T10:57:44.308Z,990.65
2022-11-24T10:58:44.239Z,990.64
2022-11-24T10:59:44.281Z,990.64
2022-11-24T11:00:44.271Z,990.59
2022-11-24T11:01:44.301Z,990.64
2022-11-24T11:02:44.294Z,990.64
2022-11-24T11:03:44.232Z,990.65
2022-11-24T11:04:44.253Z,990.71
2022-11-24T11:05:44.234Z,990.63
2022-11-24T11:06:44.124Z,990.72
2022-11-24T11:07:44.165Z,990.69
2022-11-24T11:08:44.192Z,990.72
2022-11-24T11:09:44.131Z,990.76
2022-11-24T11:10:44.150Z,990.76
2022-11-24T11:11:44.099Z,990.70
2022-11-24T11:12:45.192Z,990.75
2022-11-24T11:13:45.130Z,990.74
2022-11-24T11:14:44.059Z,990.74
2022-11-24T11:15:44.279Z,990.70
2022-11-24T11:16:44.132Z,990.64
2022-11-24T11:17:44.154Z,990.68
2022-11-24T11:18:44.258Z,990.68
2022-11-24T11:19:54.222Z,990.66
2022-11-24T11:20:46.106Z,990.75
2022-11-24T11:21:44.181Z,990.73
2022-11-24T11:22:44.138Z,990.78
2022-11-24T11:23:44.138Z,990.76
2022-11-24T11:24:44.078Z,990.77
2022-11-24T11:25:44.157Z,990.73
2022-11-24T11:26:45.139Z,990.78
2022-11-24T11:27:44.144Z,990.84
2022-11-24T11:28:44.108Z,990.80
2022-11-24T11:34:02.866Z,990.91
2022-11-24T11:34:03.405Z,990.91
2022-11-24T11:34:45.947Z,990.86
2022-11-24T11:35:43.970Z,990.85
2022-11-24T11:36:43.948Z,990.91
2022-11-24T11:37:43.964Z,990.86
2022-11-24T11:38:43.899Z,990.94
2022-11-24T11:39:48.399Z,990.86
2022-11-24T11:40:46.392Z,990.92
2022-11-24T11:41:43.921Z,990.89
2022-11-24T11:43:01.959Z,990.93
2022-11-24T11:43:45.886Z,990.82
2022-11-24T11:44:44.045Z,990.82
2022-11-24T11:45:44.016Z,990.86
2022-11-24T11:46:43.996Z,990.79
2022-11-24T11:47:43.962Z,990.91
2022-11-24T11:48:44.308Z,990.84
2022-11-24T11:49:43.963Z,990.84
2022-11-24T11:51:15.017Z,990.85
2022-11-24T11:51:45.840Z,990.87
2022-11-24T11:52:43.902Z,990.87
2022-11-24T11:53:43.962Z,990.85
2022-11-24T11:54:43.909Z,990.88
2022-11-24T11:55:49.476Z,990.84
2022-11-24T11:56:45.861Z,990.90
2022-11-24T11:57:43.882Z,990.92
2022-11-24T11:58:44.277Z,990.91
2022-11-24T11:59:43.698Z,990.89
2022-11-24T12:00:43.944Z,990.94
2022-11-24T12:01:43.729Z,990.95
2022-11-24T12:02:47.263Z,991.00
2022-11-24T12:03:46.047Z,990.96
2022-11-24T12:04:43.737Z,990.95
2022-11-24T12:05:43.814Z,990.94
2022-11-24T12:06:43.763Z,990.99
2022-11-24T12:07:44.679Z,991.03
2022-11-24T12:09:11.663Z,991.04
2022-11-24T12:09:45.957Z,990.98
2022-11-24T12:10:44.615Z,991.06
2022-11-24T12:11:46.235Z,991.05
2022-11-24T12:12:43.764Z,991.03
2022-11-24T12:13:43.832Z,991.07
2022-11-24T12:14:43.773Z,991.04
2022-11-24T12:15:43.793Z,991.06
2022-11-24T12:16:43.690Z,991.09
2022-11-24T12:17:43.785Z,991.05
2022-11-24T12:18:59.272Z,991.10
2022-11-24T12:19:45.626Z,991.18
2022-11-24T12:20:43.572Z,991.11
2022-11-24T12:21:43.726Z,991.20
2022-11-24T12:22:43.509Z,991.14
2022-11-24T12:23:43.574Z,991.14
2022-11-24T12:24:43.641Z,991.14
2022-11-24T12:25:43.675Z,991.15
2022-11-24T12:26:44.635Z,991.20
2022-11-24T12:27:43.643Z,991.22
2022-11-24T12:28:43.623Z,991.27
2022-11-24T12:29:43.603Z,991.20
2022-11-24T12:30:43.620Z,991.30
2022-11-24T12:31:43.614Z,991.28